Time;durP1;ratioP1;P1;durP2;ratioP2;P2;SDS_P1;SDS_P2;PMS_P1;PMS_P2;Temp;Humidity;BMP_temperature;BMP_pressure;BME280_temperature;BME280_humidity;BME280_pressure;Samples;Min_cycle;Max_cycle;Signal;HPM_P1;HPM_P2
2024/01/01 00:01:37;;;;;;;;;5.75;5.50;;;;;8.43;75.61;98337.63;5095628;28;8830;-57
2024/01/01 00:04:05;;;;;;;;;6.50;6.50;;;;;8.41;75.08;98344.06;5095239;28;8841;-57
2024/01/01 00:06:33;;;;;;;;;3.50;3.50;;;;;8.43;75.07;98352.72;5096052;28;8856;-59
2024/01/01 00:09:00;;;;;;;;;1.50;1.00;;;;;8.45;75.45;98348.09;5095777;28;9522;-59
2024/01/01 00:11:28;;;;;;;;;3.50;3.50;;;;;8.49;75.00;98346.78;5096045;28;8914;-59
2024/01/01 00:13:56;;;;;;;;;4.50;3.50;;;;;8.52;74.80;98352.63;5097626;28;8849;-59
2024/01/01 00:16:23;;;;;;;;;5.00;0.50;;;;;8.58;74.73;98345.94;5096063;28;8964;-59
2024/01/01 00:18:51;;;;;;;;;3.00;3.00;;;;;8.62;74.84;98348.13;5096022;28;8834;-58
2024/01/01 00:21:19;;;;;;;;;3.00;3.00;;;;;8.66;74.65;98351.31;5096196;28;8900;-59
2024/01/01 00:23:47;;;;;;;;;3.00;3.00;;;;;8.68;74.57;98350.16;5096131;28;8841;-58
2024/01/01 00:26:14;;;;;;;;;3.50;3.00;;;;;8.71;74.67;98344.59;5096122;28;8826;-56
2024/01/01 00:28:42;;;;;;;;;1.00;0.75;;;;;8.77;74.56;98364.38;5094710;28;8934;-58
2024/01/01 00:31:10;;;;;;;;;3.50;3.50;;;;;8.79;74.10;98346.47;5097324;28;8850;-57
2024/01/01 00:33:38;;;;;;;;;3.00;3.00;;;;;8.80;74.00;98348.97;5094625;28;8822;-57
2024/01/01 00:36:05;;;;;;;;;3.25;3.25;;;;;8.81;74.38;98358.59;5102670;28;8838;-57
2024/01/01 00:38:33;;;;;;;;;1.50;1.00;;;;;8.81;74.08;98340.03;5116253;28;8835;-58
2024/01/01 00:41:02;;;;;;;;;3.50;3.50;;;;;8.85;73.86;98348.53;5104865;28;8802;-58
2024/01/01 00:43:29;;;;;;;;;6.00;5.00;;;;;8.86;74.11;98361.66;5096204;28;8872;-58
2024/01/01 00:45:57;;;;;;;;;4.00;3.00;;;;;8.87;73.97;98339.44;5094359;28;8822;-59
2024/01/01 00:48:25;;;;;;;;;3.00;3.00;;;;;8.87;73.92;98358.00;5075707;28;8840;-59
2024/01/01 00:50:52;;;;;;;;;4.50;4.00;;;;;8.89;73.60;98344.59;5075443;28;8825;-59
2024/01/01 00:53:20;;;;;;;;;5.50;5.50;;;;;8.87;74.33;98344.75;5101237;28;8822;-57
2024/01/01 00:55:48;;;;;;;;;6.25;6.25;;;;;8.87;74.06;98352.72;5115612;28;8834;-57
2024/01/01 00:58:15;;;;;;;;;6.00;5.50;;;;;8.86;73.58;98345.72;5115906;28;8836;-56
2024/01/01 01:00:43;;;;;;;;;10.00;9.50;;;;;8.87;74.03;98358.00;5116000;28;8816;-57
2024/01/01 01:03:11;;;;;;;;;6.25;6.00;;;;;8.84;74.40;98345.06;5109019;28;8836;-56
2024/01/01 01:05:39;;;;;;;;;4.75;4.75;;;;;8.81;73.86;98348.00;5075341;28;8836;-57
2024/01/01 01:08:07;;;;;;;;;6.50;5.00;;;;;8.78;74.32;98340.34;5075477;28;8820;-57
2024/01/01 01:10:35;;;;;;;;;9.25;8.00;;;;;8.75;73.84;98345.94;5075359;28;8855;-57
2024/01/01 01:13:04;;;;;;;;;8.25;7.00;;;;;8.71;74.04;98357.84;5075065;28;8906;-56
2024/01/01 01:15:32;;;;;;;;;12.00;11.00;;;;;8.72;73.73;98366.63;5074939;28;8823;-56
2024/01/01 01:18:00;;;;;;;;;10.00;9.75;;;;;8.73;74.31;98352.41;5074874;28;8831;-57
2024/01/01 01:20:28;;;;;;;;;5.75;5.50;;;;;8.74;73.87;98354.88;5075994;28;8974;-57
2024/01/01 01:22:55;;;;;;;;;12.00;10.00;;;;;8.77;74.10;98341.34;5075338;28;8832;-56
2024/01/01 01:25:23;;;;;;;;;12.25;10.00;;;;;8.80;74.07;98356.94;5076893;28;8971;-57
2024/01/01 01:27:51;;;;;;;;;8.25;6.00;;;;;8.80;73.67;98346.34;5079044;28;8827;-58
2024/01/01 01:30:18;;;;;;;;;11.00;10.50;;;;;8.81;73.91;98348.00;5096394;28;9475;-58
2024/01/01 01:32:46;;;;;;;;;11.50;10.00;;;;;8.81;74.09;98358.59;5099985;28;8837;-58
2024/01/01 01:35:14;;;;;;;;;9.50;8.25;;;;;8.81;73.36;98342.69;5090489;28;8806;-58
2024/01/01 01:37:41;;;;;;;;;13.50;9.75;;;;;8.81;73.74;98360.44;5088341;28;8814;-57
2024/01/01 01:40:09;;;;;;;;;9.25;7.00;;;;;8.81;73.46;98352.50;5099816;28;8866;-57
2024/01/01 01:42:37;;;;;;;;;7.50;7.00;;;;;8.81;73.43;98355.94;5103036;28;8806;-59
2024/01/01 01:45:04;;;;;;;;;7.00;6.50;;;;;8.81;73.32;98342.69;5099682;28;8849;-58
2024/01/01 01:47:32;;;;;;;;;3.25;3.00;;;;;8.83;73.40;98353.97;5098876;28;8810;-59
2024/01/01 01:50:00;;;;;;;;;11.25;11.25;;;;;8.85;73.28;98349.38;5099657;28;8818;-57
2024/01/01 01:52:27;;;;;;;;;6.50;6.00;;;;;8.86;73.28;98356.34;5098839;28;8821;-57
2024/01/01 01:54:55;;;;;;;;;3.75;3.75;;;;;8.85;72.85;98345.88;5099568;28;8841;-59
2024/01/01 01:57:23;;;;;;;;;3.25;3.00;;;;;8.84;72.94;98331.78;5098934;28;8814;-59
2024/01/01 01:59:51;;;;;;;;;5.50;5.50;;;;;8.81;73.11;98350.66;5098942;28;8834;-57
2024/01/01 02:02:19;;;;;;;;;4.00;3.50;;;;;8.79;72.84;98343.81;5102532;28;8787;-58
2024/01/01 02:04:46;;;;;;;;;6.00;6.00;;;;;8.77;72.90;98322.75;5097653;28;8863;-58
2024/01/01 02:07:14;;;;;;;;;4.00;4.00;;;;;8.75;72.88;98323.88;5098234;28;8806;-57
2024/01/01 02:09:42;;;;;;;;;4.00;3.75;;;;;8.71;72.64;98325.16;5098675;28;8826;-56
2024/01/01 02:12:09;;;;;;;;;4.00;4.00;;;;;8.65;73.41;98313.34;5102326;28;8836;-57
2024/01/01 02:14:37;;;;;;;;;3.50;3.00;;;;;8.58;73.05;98309.59;5110926;28;8854;-57
2024/01/01 02:17:04;;;;;;;;;1.00;1.00;;;;;8.53;73.09;98311.88;5119217;28;8830;-56
2024/01/01 02:19:32;;;;;;;;;4.00;3.25;;;;;8.50;73.19;98306.88;5099426;28;8966;-58
2024/01/01 02:22:01;;;;;;;;;3.00;3.00;;;;;8.46;73.27;98294.91;5098507;28;8829;-59
2024/01/01 02:24:29;;;;;;;;;3.25;3.00;;;;;8.48;73.32;98319.47;5098660;28;8824;-59
2024/01/01 02:26:57;;;;;;;;;1.00;1.00;;;;;8.52;72.77;98296.13;5098704;28;8818;-58
2024/01/01 02:29:24;;;;;;;;;0.50;0.50;;;;;8.53;73.03;98287.16;5084554;28;8905;-59
2024/01/01 02:31:52;;;;;;;;;3.50;3.25;;;;;8.51;73.28;98286.50;5078036;28;8863;-58
2024/01/01 02:34:20;;;;;;;;;0.50;0.00;;;;;8.47;72.82;98293.91;5078352;28;8832;-59
2024/01/01 02:36:47;;;;;;;;;0.50;0.50;;;;;8.45;73.12;98303.00;5077504;28;8813;-59
2024/01/01 02:39:15;;;;;;;;;3.50;2.25;;;;;8.44;72.83;98315.41;5078006;28;8836;-59
2024/01/01 02:41:43;;;;;;;;;0.75;0.75;;;;;8.45;73.25;98303.81;5077953;28;8839;-58
2024/01/01 02:44:10;;;;;;;;;0.75;0.75;;;;;8.42;72.62;98297.97;5078289;28;8844;-60
2024/01/01 02:46:38;;;;;;;;;1.00;1.00;;;;;8.38;72.67;98315.19;5078857;28;8842;-59
2024/01/01 02:49:06;;;;;;;;;1.50;1.00;;;;;8.38;72.59;98316.00;5077904;28;9569;-60
2024/01/01 02:51:33;;;;;;;;;0.50;0.50;;;;;8.35;72.91;98318.16;5077614;28;8902;-60
2024/01/01 02:54:01;;;;;;;;;4.00;3.00;;;;;8.32;72.81;98308.66;5078509;28;8855;-58
2024/01/01 02:56:29;;;;;;;;;0.50;0.50;;;;;8.25;72.72;98312.88;5078401;28;8832;-59
2024/01/01 02:58:56;;;;;;;;;0.00;0.00;;;;;8.18;72.90;98327.69;5078594;28;9493;-58
2024/01/01 03:01:24;;;;;;;;;1.00;0.00;;;;;8.13;72.91;98327.28;5077966;28;8828;-59
2024/01/01 03:03:52;;;;;;;;;0.00;0.00;;;;;8.11;73.15;98350.44;5078165;28;8832;-58
2024/01/01 03:06:20;;;;;;;;;0.00;0.00;;;;;8.07;73.44;98358.84;5081231;28;8837;-60
2024/01/01 03:08:50;;;;;;;;;0.00;0.00;;;;;7.94;73.83;98372.41;5097834;28;8836;-59
2024/01/01 03:11:17;;;;;;;;;1.00;1.00;;;;;7.70;74.10;98376.53;5098304;28;8908;-57
2024/01/01 03:13:45;;;;;;;;;0.00;0.00;;;;;7.48;74.63;98405.13;5096669;28;8826;-57
2024/01/01 03:16:12;;;;;;;;;3.00;1.00;;;;;7.28;75.64;98392.88;5097985;28;8814;-57
2024/01/01 03:18:40;;;;;;;;;1.00;1.00;;;;;7.13;75.88;98404.84;5097408;28;8818;-59
2024/01/01 03:21:07;;;;;;;;;0.00;0.00;;;;;7.01;76.37;98408.59;5097395;28;8818;-58
2024/01/01 03:23:35;;;;;;;;;0.00;0.00;;;;;6.90;76.60;98408.72;5100799;28;8830;-58
2024/01/01 03:26:03;;;;;;;;;1.00;1.00;;;;;6.80;76.81;98408.72;5110885;28;8800;-57
2024/01/01 03:28:30;;;;;;;;;0.25;0.00;;;;;6.72;77.05;98407.69;5118233;28;8843;-58
2024/01/01 03:31:00;;;;;;;;;0.25;0.25;;;;;6.63;77.19;98397.94;5097597;28;8830;-58
2024/01/01 03:33:28;;;;;;;;;0.00;0.00;;;;;6.58;77.32;98389.56;5097801;28;8902;-58
2024/01/01 03:35:55;;;;;;;;;0.00;0.00;;;;;6.53;77.87;98383.88;5096572;28;9530;-58
2024/01/01 03:38:23;;;;;;;;;0.00;0.00;;;;;6.48;77.74;98392.22;5077299;28;8909;-56
2024/01/01 03:40:50;;;;;;;;;0.00;0.00;;;;;6.43;77.84;98396.22;5077918;28;8909;-56
2024/01/01 03:43:18;;;;;;;;;0.00;0.00;;;;;6.39;78.30;98381.59;5118019;28;8851;-59
2024/01/01 03:45:46;;;;;;;;;0.00;0.00;;;;;6.37;78.25;98388.84;5117825;28;8824;-57
2024/01/01 03:48:13;;;;;;;;;0.00;0.00;;;;;6.34;78.24;98389.09;5118054;28;8815;-56
2024/01/01 03:50:41;;;;;;;;;0.00;0.00;;;;;6.33;78.50;98387.41;5118019;28;8830;-59
2024/01/01 03:53:09;;;;;;;;;1.75;0.75;;;;;6.32;78.66;98385.75;5111585;28;9483;-58
2024/01/01 03:55:37;;;;;;;;;0.00;0.00;;;;;6.31;78.92;98384.91;5077503;28;8955;-58
2024/01/01 03:58:04;;;;;;;;;0.00;0.00;;;;;6.31;79.29;98381.44;5077273;28;8832;-58
2024/01/01 04:00:32;;;;;;;;;0.00;0.00;;;;;6.30;79.39;98385.06;5077314;28;8828;-58
2024/01/01 04:03:00;;;;;;;;;0.00;0.00;;;;;6.28;79.58;98385.19;5077053;28;8987;-58
2024/01/01 04:05:28;;;;;;;;;0.00;0.00;;;;;6.30;79.86;98374.47;5076879;28;8843;-58
2024/01/01 04:07:56;;;;;;;;;0.00;0.00;;;;;6.32;79.82;98378.66;5076874;28;8843;-57
2024/01/01 04:10:23;;;;;;;;;0.00;0.00;;;;;6.37;79.98;98394.13;5077530;28;8839;-56
2024/01/01 04:12:51;;;;;;;;;1.00;0.00;;;;;6.41;79.63;98377.00;5076717;28;8828;-56
2024/01/01 04:15:18;;;;;;;;;0.00;0.00;;;;;6.48;79.77;98380.78;5076721;28;8846;-57
2024/01/01 04:17:46;;;;;;;;;0.00;0.00;;;;;6.54;79.42;98380.25;5080782;28;8810;-56
2024/01/01 04:20:14;;;;;;;;;0.00;0.00;;;;;6.62;79.61;98386.53;5096695;28;8834;-56
2024/01/01 04:22:41;;;;;;;;;0.25;0.00;;;;;6.70;79.32;98375.28;5097204;28;8899;-56
2024/01/01 04:25:09;;;;;;;;;0.00;0.00;;;;;6.76;79.74;98378.19;5096402;28;9472;-56
2024/01/01 04:27:36;;;;;;;;;1.00;1.00;;;;;6.84;79.16;98377.53;5096819;28;8830;-56
2024/01/01 04:30:10;;;;;;;;;0.00;0.00;;;;;6.89;79.28;98378.78;5096345;28;8844;-58
2024/01/01 04:32:38;;;;;;;;;0.00;0.00;;;;;6.95;78.59;98374.75;5095646;28;9678;-57
2024/01/01 04:35:06;;;;;;;;;2.50;2.50;;;;;7.01;78.75;98384.78;5096948;28;8949;-58
2024/01/01 04:37:33;;;;;;;;;0.25;0.00;;;;;7.04;79.59;98366.81;5095997;28;9573;-57
2024/01/01 04:40:01;;;;;;;;;0.00;0.00;;;;;7.08;79.15;98376.16;5097748;28;8857;-57
2024/01/01 04:42:29;;;;;;;;;0.00;0.00;;;;;7.12;78.85;98374.06;5099745;28;8819;-56
2024/01/01 04:44:56;;;;;;;;;0.00;0.00;;;;;7.15;78.60;98355.25;5090428;28;8812;-57
2024/01/01 04:47:24;;;;;;;;;1.00;1.00;;;;;7.18;78.93;98360.25;5077391;28;8832;-56
2024/01/01 04:49:51;;;;;;;;;0.00;0.00;;;;;7.22;79.09;98373.09;5116615;28;8877;-58
2024/01/01 04:52:19;;;;;;;;;3.00;0.00;;;;;7.27;79.14;98370.03;5116725;28;8823;-57
2024/01/01 04:54:46;;;;;;;;;0.00;0.00;;;;;7.30;78.84;98360.00;5116970;28;8816;-56
2024/01/01 04:57:14;;;;;;;;;0.00;0.00;;;;;7.32;78.86;98368.63;5116635;28;8846;-56
2024/01/01 04:59:42;;;;;;;;;0.50;0.00;;;;;7.34;78.86;98369.31;5114437;28;8839;-57
2024/01/01 05:02:10;;;;;;;;;0.50;0.00;;;;;7.39;79.08;98374.19;5084387;28;8831;-57
2024/01/01 05:04:38;;;;;;;;;0.00;0.00;;;;;7.40;78.51;98381.16;5075866;28;9612;-58
2024/01/01 05:07:05;;;;;;;;;0.00;0.00;;;;;7.42;79.37;98371.28;5075959;28;8831;-57
2024/01/01 05:09:33;;;;;;;;;0.25;0.00;;;;;7.42;79.03;98364.16;5076063;28;8943;-56
2024/01/01 05:12:01;;;;;;;;;1.00;0.00;;;;;7.42;79.08;98358.84;5075523;28;8816;-57
2024/01/01 05:14:28;;;;;;;;;1.00;1.00;;;;;7.44;79.02;98371.97;5075790;28;8832;-57
2024/01/01 05:16:56;;;;;;;;;1.50;0.00;;;;;7.45;79.05;98363.03;5075694;28;8816;-57
2024/01/01 05:19:24;;;;;;;;;0.00;0.00;;;;;7.47;78.90;98371.66;5076308;28;8835;-58
2024/01/01 05:21:51;;;;;;;;;0.50;0.50;;;;;7.48;78.93;98368.88;5075691;28;8852;-58
2024/01/01 05:24:19;;;;;;;;;0.00;0.00;;;;;7.51;78.69;98367.78;5076032;28;8808;-56
2024/01/01 05:26:47;;;;;;;;;0.00;0.00;;;;;7.54;78.74;98364.84;5076084;28;8835;-57
2024/01/01 05:29:14;;;;;;;;;0.50;0.50;;;;;7.55;78.30;98366.50;5075666;28;8828;-57
2024/01/01 05:31:42;;;;;;;;;0.00;0.00;;;;;7.58;78.81;98358.28;5075316;28;8820;-57
2024/01/01 05:34:10;;;;;;;;;0.00;0.00;;;;;7.59;78.78;98362.59;5075577;28;8832;-56
2024/01/01 05:36:37;;;;;;;;;0.00;0.00;;;;;7.59;78.54;98365.25;5081551;28;8816;-57
2024/01/01 05:39:05;;;;;;;;;0.00;0.00;;;;;7.62;78.54;98371.09;5095906;28;8903;-57
2024/01/01 05:41:33;;;;;;;;;0.00;0.00;;;;;7.67;78.63;98368.88;5095937;28;8841;-58
2024/01/01 05:44:01;;;;;;;;;0.00;0.00;;;;;7.70;78.36;98384.47;5095336;28;8838;-57
2024/01/01 05:46:31;;;;;;;;;2.00;1.00;;;;;7.72;78.51;98364.81;5094521;28;8833;-56
2024/01/01 05:48:58;;;;;;;;;0.75;0.75;;;;;7.78;78.18;98376.66;5095698;28;8859;-59
2024/01/01 05:51:26;;;;;;;;;0.00;0.00;;;;;7.79;77.77;98373.84;5094091;28;8824;-58
2024/01/01 05:53:57;;;;;;;;;2.50;1.00;;;;;7.82;78.32;98378.84;5095662;28;8830;-58
2024/01/01 05:56:25;;;;;;;;;0.00;0.00;;;;;7.84;77.94;98382.19;5094928;28;8798;-58
2024/01/01 05:58:52;;;;;;;;;0.00;0.00;;;;;7.89;77.97;98389.72;5098398;28;8829;-57
2024/01/01 06:01:20;;;;;;;;;0.00;0.00;;;;;7.92;77.50;98384.97;5094189;28;8846;-56
2024/01/01 06:03:48;;;;;;;;;0.00;0.00;;;;;7.96;77.57;98388.16;5095289;28;8845;-56
2024/01/01 06:06:15;;;;;;;;;0.00;0.00;;;;;7.97;77.40;98408.38;5099928;28;8829;-56
2024/01/01 06:08:43;;;;;;;;;0.25;0.25;;;;;8.03;77.10;98394.56;5115233;28;8830;-58
2024/01/01 06:11:11;;;;;;;;;0.00;0.00;;;;;8.08;77.17;98394.97;5103722;28;8824;-56
2024/01/01 06:13:38;;;;;;;;;0.75;0.75;;;;;8.12;76.83;98396.34;5119131;28;8870;-56
2024/01/01 06:16:06;;;;;;;;;1.00;0.00;;;;;8.12;76.79;98405.13;5119401;28;8820;-56
2024/01/01 06:18:34;;;;;;;;;0.50;0.00;;;;;8.14;77.07;98400.50;5119447;28;8890;-58
2024/01/01 06:21:01;;;;;;;;;0.00;0.00;;;;;8.13;77.06;98401.50;5119584;28;8902;-56
2024/01/01 06:23:29;;;;;;;;;0.00;0.00;;;;;8.14;76.90;98418.25;5108700;28;8832;-58
2024/01/01 06:25:57;;;;;;;;;1.00;0.50;;;;;8.16;76.71;98419.78;5097543;28;8806;-59
2024/01/01 06:28:26;;;;;;;;;0.50;0.50;;;;;8.18;76.91;98422.28;5078585;28;8832;-57
2024/01/01 06:30:53;;;;;;;;;0.00;0.00;;;;;8.17;76.76;98426.75;5078243;28;8824;-58
2024/01/01 06:33:21;;;;;;;;;0.00;0.00;;;;;8.19;76.63;98424.81;5078501;28;8820;-58
2024/01/01 06:35:49;;;;;;;;;0.75;0.50;;;;;8.20;76.42;98434.44;5078417;28;8827;-58
2024/01/01 06:38:17;;;;;;;;;0.00;0.00;;;;;8.20;76.53;98434.44;5078243;28;8824;-56
2024/01/01 06:40:44;;;;;;;;;0.50;0.00;;;;;8.22;76.64;98440.44;5078289;28;8870;-59
2024/01/01 06:43:12;;;;;;;;;0.00;0.00;;;;;8.24;76.46;98442.94;5079383;28;8848;-58
2024/01/01 06:45:39;;;;;;;;;1.75;0.00;;;;;8.24;76.68;98440.28;5078188;28;8817;-58
2024/01/01 06:48:09;;;;;;;;;0.00;0.00;;;;;8.24;76.08;98442.94;5078566;28;8844;-57
2024/01/01 06:50:37;;;;;;;;;0.00;0.00;;;;;8.27;76.39;98472.66;5078285;28;8862;-57
2024/01/01 06:53:04;;;;;;;;;0.50;0.50;;;;;8.30;76.25;98458.28;5078740;28;8844;-58
2024/01/01 06:55:33;;;;;;;;;0.00;0.00;;;;;8.31;76.42;98466.09;5078372;28;8959;-59
2024/01/01 06:58:01;;;;;;;;;0.00;0.00;;;;;8.33;76.38;98464.13;5078293;28;8834;-58
2024/01/01 07:00:28;;;;;;;;;0.00;0.00;;;;;8.33;76.21;98468.59;5091573;28;8826;-58
2024/01/01 07:02:59;;;;;;;;;0.75;0.00;;;;;8.31;76.21;98473.22;5098711;28;8826;-59
2024/01/01 07:05:28;;;;;;;;;1.00;0.50;;;;;8.30;76.27;98475.00;5097789;28;8922;-57
2024/01/01 07:07:56;;;;;;;;;1.00;1.00;;;;;8.32;76.38;98477.53;5096473;28;8879;-59
2024/01/01 07:10:24;;;;;;;;;0.00;0.00;;;;;8.31;75.97;98478.53;5097899;28;8973;-58
2024/01/01 07:12:52;;;;;;;;;0.00;0.00;;;;;8.33;75.49;98489.81;5098145;28;8794;-57
2024/01/01 07:15:20;;;;;;;;;0.00;0.00;;;;;8.32;76.04;98496.94;5097440;28;9534;-58
2024/01/01 07:17:48;;;;;;;;;0.00;0.00;;;;;8.32;75.60;98482.84;5096767;28;8814;-57
2024/01/01 07:20:15;;;;;;;;;0.00;0.00;;;;;8.32;76.05;98494.28;5097865;28;8903;-59
2024/01/01 07:22:43;;;;;;;;;0.00;0.00;;;;;8.33;75.79;98501.25;5096862;28;8834;-58
2024/01/01 07:25:11;;;;;;;;;1.00;1.00;;;;;8.33;76.07;98501.25;5096742;28;8818;-59
2024/01/01 07:27:39;;;;;;;;;0.75;0.00;;;;;8.28;75.33;98508.81;5100625;28;8814;-60
2024/01/01 07:30:07;;;;;;;;;0.00;0.00;;;;;8.14;75.79;98498.59;5096962;28;8822;-58
2024/01/01 07:32:35;;;;;;;;;0.00;0.00;;;;;7.99;76.25;98507.97;5097312;28;8844;-59
2024/01/01 07:35:03;;;;;;;;;0.00;0.00;;;;;7.90;76.31;98523.91;5096120;28;8800;-57
2024/01/01 07:37:30;;;;;;;;;0.00;0.00;;;;;7.82;76.43;98526.41;5118284;28;9473;-58
2024/01/01 07:39:58;;;;;;;;;0.00;0.00;;;;;7.74;76.95;98528.91;5107673;28;8818;-57
2024/01/01 07:42:26;;;;;;;;;2.00;0.50;;;;;7.65;77.35;98532.41;5097642;28;8814;-59
2024/01/01 07:44:54;;;;;;;;;1.00;1.00;;;;;7.56;77.08;98532.38;5097457;28;8850;-59
2024/01/01 07:47:21;;;;;;;;;0.00;0.00;;;;;7.47;77.29;98547.28;5097058;28;8836;-60
2024/01/01 07:49:49;;;;;;;;;0.00;0.00;;;;;7.38;77.61;98552.56;5097158;28;8822;-59
2024/01/01 07:52:17;;;;;;;;;0.00;0.00;;;;;7.27;78.06;98553.53;5107417;28;8815;-60
2024/01/01 07:54:45;;;;;;;;;0.00;0.00;;;;;7.19;78.08;98560.47;5117594;28;8842;-59
2024/01/01 07:57:12;;;;;;;;;0.00;0.00;;;;;7.12;78.55;98564.63;5117710;28;8832;-60
2024/01/01 07:59:40;;;;;;;;;0.50;0.50;;;;;7.05;78.81;98556.38;5117360;28;8832;-59
2024/01/01 08:02:07;;;;;;;;;0.00;0.00;;;;;6.96;79.54;98564.31;5117806;28;8827;-60
2024/01/01 08:04:36;;;;;;;;;0.00;0.00;;;;;6.91;79.28;98575.25;5117939;28;8824;-60
2024/01/01 08:07:03;;;;;;;;;3.00;2.00;;;;;6.85;79.16;98580.25;5117545;28;8831;-60
2024/01/01 08:09:31;;;;;;;;;0.00;0.00;;;;;6.80;79.40;98582.44;5087716;28;8835;-60
2024/01/01 08:11:58;;;;;;;;;0.00;0.00;;;;;6.79;79.49;98591.34;5076765;28;8813;-60
2024/01/01 08:14:26;;;;;;;;;0.75;0.75;;;;;6.76;79.77;98581.06;5076547;28;8824;-59
2024/01/01 08:16:54;;;;;;;;;0.00;0.00;;;;;6.73;79.67;98587.44;5076580;28;8826;-58
2024/01/01 08:19:21;;;;;;;;;2.50;0.50;;;;;6.71;79.48;98593.81;5076768;28;8862;-58
2024/01/01 08:21:49;;;;;;;;;0.00;0.00;;;;;6.70;79.95;98594.78;5076434;28;8824;-58
2024/01/01 08:24:16;;;;;;;;;0.00;0.00;;;;;6.69;80.28;98593.94;5076515;28;8804;-58
2024/01/01 08:26:44;;;;;;;;;0.00;0.00;;;;;6.69;80.05;98593.94;5077284;28;8823;-59
2024/01/01 08:29:12;;;;;;;;;0.50;0.00;;;;;6.69;79.89;98601.06;5091491;28;9459;-57
2024/01/01 08:31:40;;;;;;;;;1.00;0.00;;;;;6.70;80.44;98597.44;5096396;28;8830;-58
2024/01/01 08:34:07;;;;;;;;;0.50;0.50;;;;;6.70;80.14;98615.94;5095301;28;8821;-58
2024/01/01 08:36:35;;;;;;;;;1.50;0.50;;;;;6.69;80.23;98611.63;5095815;28;8833;-57
2024/01/01 08:39:03;;;;;;;;;0.00;0.00;;;;;6.70;80.19;98611.50;5096344;28;8825;-59
2024/01/01 08:41:31;;;;;;;;;0.00;0.00;;;;;6.71;80.49;98615.84;5095962;28;8842;-59
2024/01/01 08:43:59;;;;;;;;;0.00;0.00;;;;;6.73;80.43;98616.53;5095721;28;8844;-59
2024/01/01 08:46:26;;;;;;;;;0.25;0.00;;;;;6.77;80.47;98619.75;5104658;28;8819;-59
2024/01/01 08:48:54;;;;;;;;;0.00;0.00;;;;;6.82;80.72;98625.50;5116880;28;8812;-57
2024/01/01 08:51:22;;;;;;;;;0.00;0.00;;;;;6.86;80.51;98625.09;5102056;28;8814;-57
2024/01/01 08:53:50;;;;;;;;;2.25;0.00;;;;;6.88;80.48;98627.59;5096137;28;8829;-58
2024/01/01 08:56:17;;;;;;;;;0.75;0.75;;;;;6.87;80.11;98624.13;5096704;28;8802;-58
2024/01/01 08:58:45;;;;;;;;;0.50;0.00;;;;;6.88;80.57;98633.75;5095785;28;8814;-59
2024/01/01 09:01:13;;;;;;;;;0.75;0.75;;;;;6.90;80.51;98637.09;5076316;28;8865;-57
2024/01/01 09:03:40;;;;;;;;;0.00;0.00;;;;;6.92;80.35;98640.47;5106025;28;8812;-59
2024/01/01 09:06:08;;;;;;;;;0.00;0.00;;;;;6.93;80.51;98644.78;5116123;28;8846;-58
2024/01/01 09:08:36;;;;;;;;;0.00;0.00;;;;;6.96;80.42;98654.28;5116419;28;8946;-57
2024/01/01 09:11:03;;;;;;;;;0.00;0.00;;;;;7.03;80.84;98652.75;5116326;28;8859;-58
2024/01/01 09:13:31;;;;;;;;;0.00;0.00;;;;;7.10;79.57;98648.59;5116198;28;8847;-58
2024/01/01 09:15:58;;;;;;;;;0.50;0.50;;;;;7.19;79.78;98653.13;5112196;28;8823;-57
2024/01/01 09:18:26;;;;;;;;;0.00;0.00;;;;;7.24;80.09;98649.09;5075659;28;8975;-59
2024/01/01 09:20:54;;;;;;;;;1.00;1.00;;;;;7.30;79.70;98666.25;5075861;28;8846;-58
2024/01/01 09:23:27;;;;;;;;;0.50;0.50;;;;;7.36;79.60;98665.72;5075894;28;8820;-58
2024/01/01 09:25:57;;;;;;;;;0.00;0.00;;;;;7.39;79.55;98674.25;5075766;28;9587;-58
2024/01/01 09:28:26;;;;;;;;;0.00;0.00;;;;;7.43;79.30;98677.47;5075965;28;8942;-59
2024/01/01 09:30:55;;;;;;;;;0.00;0.00;;;;;7.46;79.48;98690.44;5075574;28;8824;-59
2024/01/01 09:33:23;;;;;;;;;1.00;1.00;;;;;7.48;79.26;98678.72;5075772;28;8902;-59
2024/01/01 09:35:52;;;;;;;;;0.00;0.00;;;;;7.52;79.12;98680.16;5075852;28;9521;-57
2024/01/01 09:38:20;;;;;;;;;0.00;0.00;;;;;7.54;79.31;98685.31;5076014;28;8820;-58
2024/01/01 09:40:48;;;;;;;;;0.00;0.00;;;;;7.54;79.13;98694.09;5075540;28;8916;-57
2024/01/01 09:43:16;;;;;;;;;0.25;0.25;;;;;7.54;79.25;98690.59;5075177;28;8860;-58
2024/01/01 09:45:43;;;;;;;;;0.00;0.00;;;;;7.57;79.15;98687.69;5091969;28;8806;-57
2024/01/01 09:48:11;;;;;;;;;0.00;0.00;;;;;7.59;79.24;98689.22;5099939;28;8806;-57
2024/01/01 09:50:38;;;;;;;;;0.00;0.00;;;;;7.61;79.43;98691.75;5098746;28;8835;-58
2024/01/01 09:53:06;;;;;;;;;0.00;0.00;;;;;7.64;78.68;98696.78;5099537;28;8919;-59
2024/01/01 09:55:33;;;;;;;;;0.75;0.75;;;;;7.64;79.23;98699.44;5099210;28;9590;-59
2024/01/01 09:58:01;;;;;;;;;1.00;1.00;;;;;7.65;79.27;98709.06;5099096;28;8846;-59
2024/01/01 10:00:29;;;;;;;;;0.00;0.00;;;;;7.65;79.07;98695.81;5102554;28;8821;-59
2024/01/01 10:02:56;;;;;;;;;0.00;0.00;;;;;7.68;79.16;98698.19;5099394;28;8880;-57
2024/01/01 10:05:27;;;;;;;;;1.00;0.00;;;;;7.69;78.41;98696.22;5098985;28;8813;-58
2024/01/01 10:07:55;;;;;;;;;0.50;0.50;;;;;7.68;78.43;98706.13;5099405;28;8818;-58
2024/01/01 10:10:23;;;;;;;;;0.00;0.00;;;;;7.56;79.21;98705.38;5102897;28;8910;-58
2024/01/01 10:12:51;;;;;;;;;0.00;0.00;;;;;7.45;79.56;98708.16;5101763;28;8818;-57
2024/01/01 10:15:19;;;;;;;;;0.00;0.00;;;;;7.37;79.58;98715.91;5118458;28;8812;-58
2024/01/01 10:17:47;;;;;;;;;0.00;0.00;;;;;7.31;80.04;98720.88;5113799;28;8814;-57
2024/01/01 10:20:15;;;;;;;;;0.00;0.00;;;;;7.29;80.05;98712.25;5098963;28;8822;-59
2024/01/01 10:22:45;;;;;;;;;0.00;0.00;;;;;7.30;80.03;98719.22;5098896;28;8830;-58
2024/01/01 10:25:15;;;;;;;;;0.00;0.00;;;;;7.30;79.61;98719.22;5086497;28;8853;-57
2024/01/01 10:27:44;;;;;;;;;1.00;1.00;;;;;7.30;80.13;98720.06;5078872;28;8856;-59
2024/01/01 10:30:12;;;;;;;;;0.25;0.25;;;;;7.30;79.75;98709.47;5094533;28;8831;-57
2024/01/01 10:32:41;;;;;;;;;1.00;0.00;;;;;7.32;79.93;98727.84;5119129;28;8827;-57
2024/01/01 10:35:09;;;;;;;;;3.00;3.00;;;;;7.34;79.80;98723.28;5119194;28;8861;-58
2024/01/01 10:37:36;;;;;;;;;0.00;0.00;;;;;7.34;79.98;98726.75;5119232;28;8831;-59
2024/01/01 10:40:05;;;;;;;;;0.00;0.00;;;;;7.34;79.87;98726.75;5119368;28;9634;-57
2024/01/01 10:42:34;;;;;;;;;0.00;0.00;;;;;7.38;79.79;98727.31;5087040;28;8954;-58
2024/01/01 10:45:03;;;;;;;;;0.75;0.75;;;;;7.41;80.08;98721.75;5078287;28;8824;-57
2024/01/01 10:47:31;;;;;;;;;3.50;1.00;;;;;7.45;79.28;98728.47;5078411;28;8836;-59
2024/01/01 10:49:59;;;;;;;;;0.00;0.00;;;;;7.47;79.57;98722.09;5078440;28;8840;-58
2024/01/01 10:52:27;;;;;;;;;0.75;0.25;;;;;7.52;79.12;98721.69;5078053;28;8828;-58
2024/01/01 10:54:55;;;;;;;;;0.00;0.00;;;;;7.60;78.95;98724.50;5078487;28;9509;-59
2024/01/01 10:57:22;;;;;;;;;2.25;0.00;;;;;7.68;79.50;98730.81;5077940;28;9842;-57
2024/01/01 10:59:50;;;;;;;;;0.00;0.00;;;;;7.72;79.33;98727.78;5078602;28;8828;-59
2024/01/01 11:02:17;;;;;;;;;0.00;0.00;;;;;7.74;79.00;98736.41;5078030;28;8832;-59
2024/01/01 11:04:48;;;;;;;;;0.00;0.00;;;;;7.76;79.16;98745.06;5078401;28;9478;-57
2024/01/01 11:07:15;;;;;;;;;0.00;0.00;;;;;7.78;78.52;98747.59;5090376;28;8824;-58
2024/01/01 11:09:43;;;;;;;;;0.50;0.50;;;;;7.80;78.74;98754.44;5098344;28;9497;-58
2024/01/01 11:12:10;;;;;;;;;0.50;0.00;;;;;7.82;78.77;98744.53;5097223;28;8822;-57
2024/01/01 11:14:41;;;;;;;;;0.00;0.00;;;;;7.84;78.78;98744.41;5096778;28;8825;-59
2024/01/01 11:17:10;;;;;;;;;0.00;0.00;;;;;7.84;79.14;98742.56;5097188;28;8930;-58
2024/01/01 11:19:38;;;;;;;;;2.00;2.00;;;;;7.87;78.84;98744.13;5097634;28;8833;-57
2024/01/01 11:22:06;;;;;;;;;0.75;0.00;;;;;7.89;78.85;98745.66;5097549;28;8818;-59
2024/01/01 11:24:34;;;;;;;;;0.25;0.00;;;;;7.92;78.49;98748.03;5097333;28;8814;-57
2024/01/01 11:27:03;;;;;;;;;0.00;0.00;;;;;7.95;78.46;98755.75;5096928;28;8907;-57
2024/01/01 11:29:34;;;;;;;;;0.00;0.00;;;;;8.04;78.61;98748.78;5097292;28;8822;-59
2024/01/01 11:32:02;;;;;;;;;1.00;1.00;;;;;8.14;78.63;98737.22;5097053;28;8836;-58
2024/01/01 11:34:32;;;;;;;;;1.00;1.00;;;;;8.22;78.20;98741.88;5097814;28;8826;-59
2024/01/01 11:37:13;;;;;;;;;0.00;0.00;;;;;8.26;78.25;98735.31;5096889;28;8844;-57
2024/01/01 11:39:41;;;;;;;;;0.00;0.00;;;;;8.27;78.12;98729.88;5097616;28;8822;-60
2024/01/01 11:42:09;;;;;;;;;0.00;0.00;;;;;8.28;78.08;98738.69;5097855;28;8838;-57
2024/01/01 11:44:36;;;;;;;;;1.00;1.00;;;;;8.29;78.27;98743.84;5096874;28;8830;-57
2024/01/01 11:47:04;;;;;;;;;1.50;0.00;;;;;8.26;78.20;98762.69;5096219;28;8810;-57
2024/01/01 11:49:32;;;;;;;;;1.00;0.00;;;;;8.26;78.27;98738.81;5096656;28;8838;-58
2024/01/01 11:52:02;;;;;;;;;2.00;1.00;;;;;8.26;78.01;98749.44;5095935;28;8814;-60